createdAt,value
2019-04-11T00:00:55.635Z,53.08
2019-04-11T00:01:54.314Z,53.31
2019-04-11T00:02:55.374Z,52.34
2019-04-11T00:03:54.143Z,52.79
2019-04-11T00:04:54.857Z,52.86
2019-04-11T00:05:55.113Z,52.56
2019-04-11T00:06:54.186Z,52.97
2019-04-11T00:07:54.462Z,53.14
2019-04-11T00:08:54.456Z,53.02
2019-04-11T00:09:54.800Z,52.56
2019-04-11T00:10:54.145Z,52.78
2019-04-11T00:11:54.603Z,52.55
2019-04-11T00:12:55.002Z,52.56
2019-04-11T00:13:54.109Z,53.05
2019-04-11T00:14:54.091Z,52.69
2019-04-11T00:15:55.230Z,52.61
2019-04-11T00:16:55.538Z,52.55
2019-04-11T00:17:54.724Z,52.82
2019-04-11T00:18:54.971Z,52.54
2019-04-11T00:19:54.072Z,52.53
2019-04-11T00:20:54.123Z,52.79
2019-04-11T00:21:55.385Z,52.59
2019-04-11T00:22:54.344Z,52.98
2019-04-11T00:23:54.847Z,52.54
2019-04-11T00:24:54.137Z,53.03
2019-04-11T00:25:54.116Z,53.37
2019-04-11T00:26:55.112Z,52.69
2019-04-11T00:27:54.774Z,53.44
2019-04-11T00:28:54.354Z,53.33
2019-04-11T00:29:54.095Z,53.23
2019-04-11T00:30:54.921Z,52.93
2019-04-11T00:31:55.031Z,53.32
2019-04-11T00:32:54.091Z,53.38
2019-04-11T00:33:54.961Z,53.53
2019-04-11T00:34:55.476Z,53.68
2019-04-11T00:35:54.118Z,53.57
2019-04-11T00:36:55.066Z,54.01
2019-04-11T00:37:54.082Z,54.1
2019-04-11T00:38:55.315Z,54.18
2019-04-11T00:39:54.266Z,53.34
2019-04-11T00:40:54.844Z,53.25
2019-04-11T00:41:54.601Z,53.64
2019-04-11T00:42:54.898Z,53.65
2019-04-11T00:43:54.837Z,54.08
2019-04-11T00:44:55.128Z,53.39
2019-04-11T00:45:54.336Z,53.52
2019-04-11T00:46:54.119Z,53.31
2019-04-11T00:47:55.294Z,52.92
2019-04-11T00:48:54.636Z,53.24
2019-04-11T00:49:54.866Z,53.44
2019-04-11T00:50:54.059Z,53.9
2019-04-11T00:51:54.172Z,53.97
2019-04-11T00:52:54.089Z,53.68
2019-04-11T00:53:54.286Z,54.05
2019-04-11T00:54:55.473Z,54.39
2019-04-11T00:55:54.101Z,54.81
2019-04-11T00:56:54.904Z,54.47
2019-04-11T00:57:55.198Z,53.27
2019-04-11T00:58:54.386Z,53.77
2019-04-11T00:59:54.501Z,54.04
2019-04-11T01:00:54.038Z,53.88
2019-04-11T01:01:54.226Z,54.05
2019-04-11T01:02:54.110Z,53.78
2019-04-11T01:03:55.976Z,54.44
2019-04-11T01:04:54.082Z,53.53
2019-04-11T01:05:58.188Z,54.29
2019-04-11T01:06:54.572Z,54.4
2019-04-11T01:07:54.035Z,53.97
2019-04-11T01:08:54.114Z,54.15
2019-04-11T01:09:54.986Z,54.24
2019-04-11T01:10:55.309Z,54.05
2019-04-11T01:11:54.508Z,54.24
2019-04-11T01:12:54.212Z,54.67
2019-04-11T01:13:55.908Z,54.82
2019-04-11T01:14:55.471Z,54.66
2019-04-11T01:15:54.601Z,54.76
2019-04-11T01:16:54.050Z,54.95
2019-04-11T01:17:54.057Z,55.18
2019-04-11T01:18:55.344Z,54.6
2019-04-11T01:19:55.501Z,54.89
2019-04-11T01:20:54.050Z,55.19
2019-04-11T01:21:55.158Z,55.68
2019-04-11T01:22:54.403Z,55.42
2019-04-11T01:23:54.101Z,54.69
2019-04-11T01:24:54.017Z,54.78
2019-04-11T01:25:55.083Z,54.86
2019-04-11T01:26:55.326Z,55.05
2019-04-11T01:27:54.501Z,55.39
2019-04-11T01:28:55.528Z,55.82
2019-04-11T01:29:54.029Z,55.75
2019-04-11T01:30:54.030Z,55.55
2019-04-11T01:31:54.138Z,56.06
2019-04-11T01:32:55.029Z,56.81
2019-04-11T01:33:54.030Z,56.57
2019-04-11T01:34:55.166Z,57.05
2019-04-11T01:35:54.026Z,57.38
2019-04-11T01:36:54.093Z,57.85
2019-04-11T01:37:53.990Z,57.22
2019-04-11T01:38:54.974Z,57.01
2019-04-11T01:39:54.070Z,57.23
2019-04-11T01:40:54.186Z,57.63
2019-04-11T01:41:55.412Z,57.99
2019-04-11T01:42:54.022Z,57.89
2019-04-11T01:44:08.337Z,58.17
2019-04-11T01:44:55.008Z,58.06
2019-04-11T01:45:54.018Z,58.4
2019-04-11T01:46:54.303Z,58.32
2019-04-11T01:47:55.385Z,59.57
2019-04-11T01:48:53.994Z,60.31
2019-04-11T01:49:54.740Z,60.22
2019-04-11T01:50:54.001Z,60.18
2019-04-11T01:51:54.102Z,59.83
2019-04-11T01:52:55.177Z,59.59
2019-04-11T01:53:55.446Z,60.01
2019-04-11T01:54:54.363Z,60.69
2019-04-11T01:55:54.063Z,60.67
2019-04-11T01:56:53.989Z,60.44
2019-04-11T01:57:54.192Z,61.07
2019-04-11T01:58:55.405Z,61.54
2019-04-11T01:59:53.993Z,61.45
2019-04-11T02:00:54.902Z,60.89
2019-04-11T02:01:55.028Z,60.91
2019-04-11T02:02:55.049Z,61.91
2019-04-11T02:03:55.444Z,61.64
2019-04-11T02:04:54.544Z,61.72
2019-04-11T02:05:54.000Z,61.64
2019-04-11T02:06:54.386Z,62.07
2019-04-11T02:07:55.399Z,62.19
2019-04-11T02:08:53.951Z,62.23
2019-04-11T02:09:54.965Z,61.98
2019-04-11T02:10:54.150Z,62.07
2019-04-11T02:11:54.154Z,62.53
2019-04-11T02:12:53.983Z,62.56
2019-04-11T02:14:19.227Z,62.47
2019-04-11T02:14:53.951Z,62.36
2019-04-11T02:16:01.464Z,62.92
2019-04-11T02:16:53.995Z,63.2
2019-04-11T02:17:55.226Z,63.47
2019-04-11T02:18:54.210Z,63.32
2019-04-11T02:19:54.046Z,63.45
2019-04-11T02:20:55.862Z,63.27
2019-04-11T02:21:53.953Z,63.63
2019-04-11T02:22:55.185Z,64.5
2019-04-11T02:23:55.344Z,64.03
2019-04-11T02:24:54.467Z,64
2019-04-11T02:25:54.667Z,63.91
2019-04-11T02:26:54.766Z,64.48
2019-04-11T02:27:54.415Z,64.93
2019-04-11T02:28:55.405Z,64.57
2019-04-11T02:29:55.352Z,64.22
2019-04-11T02:30:56.877Z,64.59
2019-04-11T02:32:05.114Z,64.39
2019-04-11T02:32:54.006Z,64.1
2019-04-11T02:33:59.464Z,64.02
2019-04-11T02:35:05.070Z,64.02
2019-04-11T02:35:57.353Z,63.89
2019-04-11T02:37:01.876Z,64.3
2019-04-11T02:37:59.832Z,64.48
2019-04-11T02:39:12.099Z,64.67
2019-04-11T02:40:00.142Z,64.75
2019-04-11T02:40:57.998Z,65.14
2019-04-11T02:42:00.998Z,65.36
2019-04-11T02:42:55.103Z,65.29
2019-04-11T02:43:59.753Z,64.87
2019-04-11T02:45:44.951Z,64.82
2019-04-11T02:46:42.392Z,64.49
2019-04-11T02:47:22.746Z,64.4
2019-04-11T02:47:57.284Z,64.26
2019-04-11T02:49:00.911Z,64.76
2019-04-11T02:49:55.263Z,64.93
2019-04-11T02:51:00.820Z,64.7
2019-04-11T02:51:56.249Z,64.77
2019-04-11T02:52:54.166Z,64.7
2019-04-11T02:53:59.131Z,64.75
2019-04-11T02:54:54.738Z,64.63
2019-04-11T02:56:00.150Z,64.96
2019-04-11T02:56:55.175Z,65.16
2019-04-11T02:57:59.092Z,65.51
2019-04-11T02:58:56.779Z,65.67
2019-04-11T02:59:56.708Z,65.5
2019-04-11T03:01:07.009Z,65.3
2019-04-11T03:01:53.901Z,65.35
2019-04-11T03:02:54.279Z,65.1
2019-04-11T03:03:59.405Z,65.62
2019-04-11T03:04:56.807Z,65.69
2019-04-11T03:06:02.617Z,65.72
2019-04-11T03:06:57.450Z,65.54
2019-04-11T03:07:56.897Z,65.6
2019-04-11T03:08:59.428Z,65.47
2019-04-11T03:09:57.011Z,65.53
2019-04-11T03:10:59.484Z,65.56
2019-04-11T03:11:59.094Z,65.3
2019-04-11T03:12:56.576Z,65.43
2019-04-11T03:13:55.244Z,65.89
2019-04-11T03:15:48.102Z,65.26
2019-04-11T03:16:45.980Z,65.91
2019-04-11T03:17:26.544Z,65.69
2019-04-11T03:18:09.345Z,65.63
2019-04-11T03:19:57.759Z,65.63
2019-04-11T03:20:32.394Z,65.58
2019-04-11T03:21:16.317Z,65.73
2019-04-11T03:22:01.079Z,65.89
2019-04-11T03:23:10.186Z,66.22
2019-04-11T03:23:54.108Z,66.23
2019-04-11T03:25:00.593Z,66.27
2019-04-11T03:25:56.172Z,65.88
2019-04-11T03:27:05.429Z,66.58
2019-04-11T03:27:54.471Z,66.36
2019-04-11T03:28:59.854Z,66.33
2019-04-11T03:30:01.924Z,66.98
2019-04-11T03:41:54.436Z,66.05
2019-04-11T03:42:59.179Z,66.96
2019-04-11T03:43:48.424Z,66.76
2019-04-11T03:44:28.452Z,66.75
2019-04-11T03:47:04.435Z,67.04
2019-04-11T03:47:48.223Z,66.4
2019-04-11T03:48:46.398Z,66.73
2019-04-11T03:49:39.402Z,66.93
2019-04-11T03:50:19.360Z,66.7
2019-04-11T03:51:01.758Z,66.99
2019-04-11T03:51:55.884Z,67.11
2019-04-11T03:53:03.781Z,66.7
2019-04-11T03:53:53.882Z,67.18
2019-04-11T03:55:00.323Z,67.28
2019-04-11T03:55:56.415Z,67
2019-04-11T03:56:54.137Z,67
2019-04-11T03:58:01.407Z,67.6
2019-04-11T03:58:58.387Z,67.58
2019-04-11T04:00:00.529Z,67.37
2019-04-11T04:01:08.500Z,67.66
2019-04-11T04:01:59.973Z,67.34
2019-04-11T04:03:01.967Z,67.28
2019-04-11T04:03:55.936Z,66.73
2019-04-11T04:04:54.925Z,67.35
2019-04-11T04:06:01.986Z,67.66
2019-04-11T04:06:58.577Z,67.82
2019-04-11T04:08:02.258Z,67.35
2019-04-11T04:08:55.949Z,67.89
2019-04-11T04:09:54.774Z,68.14
2019-04-11T04:10:53.795Z,67.7
2019-04-11T04:11:59.510Z,67.63
2019-04-11T04:13:02.128Z,68.36
2019-04-11T04:13:56.461Z,67.82
2019-04-11T04:14:54.583Z,68.2
2019-04-11T04:16:25.778Z,68.24
2019-04-11T04:17:06.279Z,68.47
2019-04-11T04:17:59.214Z,68.23
2019-04-11T04:18:59.205Z,67.87
2019-04-11T04:19:56.898Z,68.36
2019-04-11T04:20:53.923Z,68.6
2019-04-11T04:21:58.099Z,69.06
2019-04-11T04:22:57.169Z,68.88
2019-04-11T04:24:03.739Z,68.59
2019-04-11T04:24:56.434Z,68.35
2019-04-11T04:25:55.363Z,68.3
2019-04-11T04:27:01.536Z,68.57
2019-04-11T04:27:58.954Z,68.94
2019-04-11T04:28:55.772Z,68.85
2019-04-11T04:30:05.739Z,69
2019-04-11T04:30:54.634Z,69.37
2019-04-11T04:31:55.296Z,69.55
2019-04-11T04:32:57.435Z,69.85
2019-04-11T04:33:59.560Z,69.27
2019-04-11T04:34:53.844Z,69.04
2019-04-11T04:35:53.838Z,69.36
2019-04-11T04:36:55.865Z,69.3
2019-04-11T04:37:54.733Z,69.39
2019-04-11T04:38:54.826Z,68.96
2019-04-11T04:40:50.735Z,69.16
2019-04-11T04:41:38.246Z,68.67
2019-04-11T04:42:24.813Z,69.25
2019-04-11T04:43:03.488Z,69.36
2019-04-11T04:44:01.491Z,69.22
2019-04-11T04:44:58.101Z,69.08
2019-04-11T04:46:55.282Z,68.92
2019-04-11T04:47:31.143Z,68.98
2019-04-11T04:48:12.214Z,68.87
2019-04-11T04:48:56.384Z,69.35
2019-04-11T04:49:54.626Z,69.47
2019-04-11T04:51:09.051Z,69.83
2019-04-11T04:51:56.351Z,69.95
2019-04-11T04:53:01.012Z,70.15
2019-04-11T04:54:00.447Z,70.24
2019-04-11T04:55:03.883Z,70.53
2019-04-11T04:55:54.594Z,70.6
2019-04-11T04:56:55.343Z,69.92
2019-04-11T04:58:00.197Z,70.59
2019-04-11T04:58:56.174Z,70.13
2019-04-11T04:59:59.640Z,70.59
2019-04-11T05:00:58.819Z,69.71
2019-04-11T05:01:56.085Z,69.7
2019-04-11T05:03:02.061Z,70.17
2019-04-11T05:03:58.806Z,70.04
2019-04-11T05:04:56.114Z,70.07
2019-04-11T05:05:55.631Z,70.26
2019-04-11T05:06:55.359Z,70.17
2019-04-11T05:07:56.133Z,70.2
2019-04-11T05:08:53.758Z,69.98
2019-04-11T05:09:56.853Z,70.35
2019-04-11T05:10:58.029Z,70.6
2019-04-11T05:11:55.350Z,70.32
2019-04-11T05:12:57.205Z,69.72
2019-04-11T05:13:58.716Z,69.5
2019-04-11T05:14:56.278Z,69.59
2019-04-11T05:16:18.176Z,70.28
2019-04-11T05:16:54.802Z,70.77
2019-04-11T05:17:53.694Z,70.34
2019-04-11T05:18:54.908Z,70.31
2019-04-11T05:19:54.591Z,70.53
2019-04-11T05:20:54.906Z,70.13
2019-04-11T05:21:54.233Z,70.23
2019-04-11T05:22:54.039Z,69.79
2019-04-11T05:23:56.827Z,70.1
2019-04-11T05:25:01.642Z,70.06
2019-04-11T05:25:54.750Z,70.46
2019-04-11T05:26:53.730Z,70.43
2019-04-11T05:27:54.245Z,69.84
2019-04-11T05:28:53.738Z,69.99
2019-04-11T05:29:53.718Z,70.12
2019-04-11T05:30:53.772Z,70.14
2019-04-11T05:31:54.876Z,69.79
2019-04-11T05:32:53.688Z,69.49
2019-04-11T05:33:54.067Z,69.6
2019-04-11T05:34:53.683Z,69.92
2019-04-11T05:35:54.383Z,69.02
2019-04-11T05:36:53.959Z,69.53
2019-04-11T05:37:53.736Z,69.35
2019-04-11T05:38:54.890Z,69.19
2019-04-11T05:39:53.669Z,69.38
2019-04-11T05:40:54.785Z,69.12
2019-04-11T05:41:54.634Z,68.95
2019-04-11T05:42:55.947Z,69.01
2019-04-11T05:43:53.906Z,69.01
2019-04-11T05:44:54.959Z,68.63
2019-04-11T05:45:58.421Z,68.8
2019-04-11T05:47:06.444Z,68.8
2019-04-11T05:47:58.632Z,69.19
2019-04-11T05:49:03.720Z,68.86
2019-04-11T05:49:54.893Z,68.73
2019-04-11T05:50:54.307Z,68.71
2019-04-11T05:52:00.800Z,68.44
2019-04-11T05:52:54.826Z,68.61
2019-04-11T05:53:55.980Z,68.44
2019-04-11T05:54:54.534Z,68.71
2019-04-11T05:55:53.672Z,68.99
2019-04-11T05:57:01.339Z,68.6
2019-04-11T05:57:54.635Z,69.23
2019-04-11T05:58:53.670Z,69.36
2019-04-11T05:59:59.127Z,68.56
2019-04-11T06:00:59.670Z,68.26
2019-04-11T06:01:55.120Z,68.67
2019-04-11T06:02:53.714Z,68.7
2019-04-11T06:03:53.859Z,68.24
2019-04-11T06:04:58.013Z,67.74
2019-04-11T06:06:03.206Z,65.92
2019-04-11T06:07:01.518Z,64.06
2019-04-11T06:07:58.185Z,62.38
2019-04-11T06:09:02.218Z,60.96
2019-04-11T06:09:54.752Z,60.91
2019-04-11T06:10:54.922Z,59.78
2019-04-11T06:11:58.265Z,60.68
2019-04-11T06:12:54.852Z,59.9
2019-04-11T06:13:53.625Z,60.43
2019-04-11T06:14:53.677Z,60.12
2019-04-11T06:15:53.737Z,60.09
2019-04-11T06:16:59.264Z,59.74
2019-04-11T06:17:56.607Z,59.12
2019-04-11T06:18:54.477Z,59
2019-04-11T06:19:53.775Z,58.93
2019-04-11T06:20:53.824Z,58.59
2019-04-11T06:21:53.674Z,59.58
2019-04-11T06:22:54.321Z,59.74
2019-04-11T06:23:53.986Z,58.33
2019-04-11T06:24:54.774Z,58.16
2019-04-11T06:25:53.668Z,58.67
2019-04-11T06:26:54.946Z,59.5
2019-04-11T06:27:54.151Z,58.27
2019-04-11T06:28:57.080Z,57.13
2019-04-11T06:29:54.832Z,57.71
2019-04-11T06:30:54.970Z,57.24
2019-04-11T06:31:53.669Z,57.03
2019-04-11T06:32:54.561Z,56.93
2019-04-11T06:33:53.608Z,56.25
2019-04-11T06:34:53.594Z,56.93
2019-04-11T06:35:54.793Z,57.11
2019-04-11T06:36:55.383Z,57.74
2019-04-11T06:37:54.497Z,57.86
2019-04-11T06:38:54.906Z,58.28
2019-04-11T06:40:00.797Z,57.28
2019-04-11T06:40:54.709Z,56.48
2019-04-11T06:41:55.028Z,56.9
2019-04-11T06:42:54.005Z,57.04
2019-04-11T06:43:53.657Z,55.82
2019-04-11T06:44:54.866Z,55.58
2019-04-11T06:45:54.545Z,56.1
2019-04-11T06:47:03.698Z,56.34
2019-04-11T06:47:53.767Z,57.29
2019-04-11T06:48:54.157Z,57.57
2019-04-11T06:49:53.572Z,56.87
2019-04-11T06:50:53.547Z,56.46
2019-04-11T06:51:55.213Z,56.99
2019-04-11T06:52:53.641Z,56.98
2019-04-11T06:53:54.843Z,57.02
2019-04-11T06:54:54.095Z,56.23
2019-04-11T06:55:55.226Z,55.87
2019-04-11T06:56:54.006Z,55.08
2019-04-11T06:57:54.420Z,55.3
2019-04-11T06:58:56.964Z,55.39
2019-04-11T06:59:53.596Z,55.06
2019-04-11T07:00:53.745Z,55.07
2019-04-11T07:01:55.265Z,54.56
2019-04-11T07:02:53.530Z,54.02
2019-04-11T07:03:53.540Z,54.4
2019-04-11T07:04:54.080Z,55.38
2019-04-11T07:05:53.619Z,55.67
2019-04-11T07:06:53.888Z,54.51
2019-04-11T07:07:54.055Z,53.96
2019-04-11T07:08:54.799Z,54.64
2019-04-11T07:09:53.702Z,55.2
2019-04-11T07:10:55.426Z,56.51
2019-04-11T07:11:53.801Z,56.36
2019-04-11T07:13:00.621Z,55.29
2019-04-11T07:13:53.553Z,53.71
2019-04-11T07:14:53.543Z,53.32
2019-04-11T07:15:54.957Z,54.08
2019-04-11T07:17:10.386Z,54.38
2019-04-11T07:17:54.833Z,54.02
2019-04-11T07:18:53.533Z,53.79
2019-04-11T07:19:53.840Z,53.18
2019-04-11T07:20:54.463Z,53.39
2019-04-11T07:21:53.521Z,53.65
2019-04-11T07:22:53.532Z,54.22
2019-04-11T07:23:53.601Z,53.03
2019-04-11T07:24:53.533Z,53.03
2019-04-11T07:25:54.088Z,53.15
2019-04-11T07:26:54.508Z,53.18
2019-04-11T07:27:53.568Z,53.38
2019-04-11T07:28:54.412Z,54.14
2019-04-11T07:29:54.585Z,54.62
2019-04-11T07:30:54.022Z,53.89
2019-04-11T07:31:54.947Z,53.58
2019-04-11T07:32:53.531Z,54.05
2019-04-11T07:33:54.168Z,52.8
2019-04-11T07:34:54.693Z,53.2
2019-04-11T07:35:53.581Z,53.48
2019-04-11T07:36:53.727Z,53.67
2019-04-11T07:37:53.553Z,53.37
2019-04-11T07:38:54.588Z,53.99
2019-04-11T07:39:53.860Z,53.81
2019-04-11T07:40:56.293Z,54.44
2019-04-11T07:41:53.506Z,54.56
2019-04-11T07:43:11.442Z,54.31
2019-04-11T07:43:54.421Z,54.44
2019-04-11T07:44:53.493Z,53.49
2019-04-11T07:45:53.818Z,52.55
2019-04-11T07:46:53.964Z,51.34
2019-04-11T07:47:54.963Z,51.54
2019-04-11T07:48:54.973Z,51.99
2019-04-11T07:49:58.322Z,51.71
2019-04-11T07:50:55.628Z,52.01
2019-04-11T07:51:54.395Z,52.24
2019-04-11T07:52:53.891Z,52.63
2019-04-11T07:53:54.785Z,52.43
2019-04-11T07:54:53.818Z,52.6
2019-04-11T07:55:53.524Z,52.5
2019-04-11T07:56:53.577Z,53.12
2019-04-11T07:57:54.847Z,51.67
2019-04-11T07:58:54.413Z,51.98
2019-04-11T07:59:53.547Z,52.44
2019-04-11T08:00:56.150Z,51.94
2019-04-11T08:01:53.486Z,51.94
2019-04-11T08:02:53.453Z,51.33
2019-04-11T08:03:53.738Z,51.98
2019-04-11T08:04:53.773Z,51.97
2019-04-11T08:05:54.711Z,51.81
2019-04-11T08:06:54.472Z,51.91
2019-04-11T08:07:53.538Z,52.1
2019-04-11T08:08:56.128Z,51.7
2019-04-11T08:09:53.471Z,51.68
2019-04-11T08:10:54.803Z,51.43
2019-04-11T08:11:53.453Z,51.2
2019-04-11T08:12:54.375Z,51.41
2019-04-11T08:13:56.841Z,51.52
2019-04-11T08:14:53.427Z,51.15
2019-04-11T08:15:53.863Z,51.76
2019-04-11T08:16:53.453Z,51.37
2019-04-11T08:17:54.540Z,52.28
2019-04-11T08:18:53.425Z,51.64
2019-04-11T08:19:53.449Z,50.8
2019-04-11T08:20:53.448Z,50.93
2019-04-11T08:21:54.699Z,51.47
2019-04-11T08:22:53.421Z,50.23
2019-04-11T08:23:54.370Z,49.68
2019-04-11T08:24:53.617Z,50.91
2019-04-11T08:25:53.828Z,50.89
2019-04-11T08:26:53.673Z,50.81
2019-04-11T08:28:07.528Z,51.15
2019-04-11T08:29:15.617Z,51.06
2019-04-11T08:29:54.554Z,51.6
2019-04-11T08:30:53.461Z,50.98
2019-04-11T08:31:57.758Z,50.79
2019-04-11T08:32:54.055Z,50.93
2019-04-11T08:33:53.404Z,51.65
2019-04-11T08:34:53.634Z,51.03
2019-04-11T08:35:59.446Z,51.15
2019-04-11T08:36:53.411Z,51.6
2019-04-11T08:37:54.185Z,50.07
2019-04-11T08:38:53.453Z,50.47
2019-04-11T08:39:53.552Z,49.85
2019-04-11T08:40:53.500Z,49.65
2019-04-11T08:41:53.464Z,49.57
2019-04-11T08:42:53.430Z,49.85
2019-04-11T08:43:55.234Z,49.81
2019-04-11T08:44:54.411Z,49.09
2019-04-11T08:45:54.368Z,49.94
2019-04-11T08:46:54.111Z,50.26
2019-04-11T08:48:00.349Z,50.41
2019-04-11T08:48:54.593Z,49.43
2019-04-11T08:49:58.411Z,48.38
2019-04-11T08:50:54.791Z,49.31
2019-04-11T08:51:53.941Z,49.05
2019-04-11T08:52:54.378Z,49.17
2019-04-11T08:53:53.372Z,48.57
2019-04-11T08:54:53.655Z,48.73
2019-04-11T08:56:03.515Z,49.19
2019-04-11T08:56:53.775Z,49.95
2019-04-11T08:57:53.732Z,50.18
2019-04-11T08:58:53.389Z,49
2019-04-11T08:59:53.644Z,48.53
2019-04-11T09:01:00.846Z,49
2019-04-11T09:01:54.137Z,48.97
2019-04-11T09:02:53.629Z,49.57
2019-04-11T09:04:12.475Z,48.93
2019-04-11T09:05:18.202Z,48.08
2019-04-11T09:05:53.470Z,47.35
2019-04-11T09:06:53.388Z,48.04
2019-04-11T09:07:54.262Z,47.94
2019-04-11T09:08:54.557Z,47.84
2019-04-11T09:09:55.566Z,48.85
2019-04-11T09:10:56.048Z,46.8
2019-04-11T09:12:12.591Z,48.31
2019-04-11T09:12:53.444Z,48
2019-04-11T09:13:53.633Z,48.02
2019-04-11T09:14:54.409Z,47.28
2019-04-11T09:15:53.377Z,47.86
2019-04-11T09:16:54.288Z,47.95
2019-04-11T09:18:10.989Z,47.67
2019-04-11T09:18:54.545Z,47.91
2019-04-11T09:19:53.375Z,48.18
2019-04-11T09:20:54.140Z,48.03
2019-04-11T09:21:53.373Z,47.98
2019-04-11T09:22:53.540Z,47.36
2019-04-11T09:23:54.798Z,47.28
2019-04-11T09:24:53.385Z,47.63
2019-04-11T09:25:56.696Z,47.45
2019-04-11T09:26:58.480Z,47.95
2019-04-11T09:27:55.821Z,47.77
2019-04-11T09:28:53.785Z,47.68
2019-04-11T09:29:54.609Z,47.57
2019-04-11T09:30:53.325Z,46.9
2019-04-11T09:31:54.020Z,47.17
2019-04-11T09:32:53.427Z,47.55
2019-04-11T09:33:55.692Z,47.03
2019-04-11T09:34:54.452Z,46.89
2019-04-11T09:35:53.433Z,45.58
2019-04-11T09:36:53.551Z,44.49
2019-04-11T09:37:53.955Z,44.79
2019-04-11T09:38:53.390Z,43.98
2019-04-11T09:39:53.332Z,44.1
2019-04-11T09:40:54.376Z,42.27
2019-04-11T09:41:54.626Z,41.81
2019-04-11T09:42:53.689Z,42.34
2019-04-11T09:43:53.366Z,42.9
2019-04-11T09:44:53.342Z,41.92
2019-04-11T09:45:54.455Z,42.27
2019-04-11T09:46:57.040Z,41.52
2019-04-11T09:48:19.091Z,43.16
2019-04-11T09:48:53.996Z,42.99
2019-04-11T09:49:53.923Z,43.97
2019-04-11T09:50:53.352Z,44.35
2019-04-11T09:51:54.402Z,45.19
2019-04-11T09:52:56.059Z,45.41
2019-04-11T09:53:53.487Z,44.99
2019-04-11T09:54:54.750Z,45.25
2019-04-11T09:55:53.854Z,45.26
2019-04-11T09:56:54.147Z,44.85
2019-04-11T09:57:54.793Z,44.91
2019-04-11T09:58:53.326Z,44.05
2019-04-11T09:59:54.437Z,44.7
2019-04-11T10:00:53.342Z,44.25
2019-04-11T10:01:54.211Z,44.09
2019-04-11T10:02:53.346Z,43.58
2019-04-11T10:03:53.429Z,41.15
2019-04-11T10:04:54.564Z,41.92
2019-04-11T10:05:54.806Z,41.78
2019-04-11T10:06:53.453Z,41.55
2019-04-11T10:07:54.654Z,41.34
2019-04-11T10:08:53.415Z,41.56
2019-04-11T10:09:56.958Z,42.59
2019-04-11T10:10:53.423Z,43.27
2019-04-11T10:11:55.320Z,42.17
2019-04-11T10:12:54.385Z,42.13
2019-04-11T10:13:53.458Z,42.38
2019-04-11T10:14:53.750Z,42.13
2019-04-11T10:15:53.782Z,42.64
2019-04-11T10:16:53.306Z,42.84
2019-04-11T10:17:54.583Z,43.29
2019-04-11T10:18:53.763Z,43.78
2019-04-11T10:19:54.469Z,44.28
2019-04-11T10:20:53.286Z,44.96
2019-04-11T10:21:54.546Z,42.62
2019-04-11T10:22:54.656Z,43.21
2019-04-11T10:23:53.588Z,43.15
2019-04-11T10:24:53.346Z,42.58
2019-04-11T10:25:53.941Z,41.65
2019-04-11T10:26:53.244Z,42.99
2019-04-11T10:27:53.335Z,42.34
2019-04-11T10:28:53.730Z,42.62
2019-04-11T10:29:53.317Z,42.82
2019-04-11T10:30:53.828Z,41.84
2019-04-11T10:31:53.307Z,42.39
2019-04-11T10:32:53.337Z,43.22
2019-04-11T10:33:53.324Z,42.62
2019-04-11T10:34:54.273Z,43.16
2019-04-11T10:35:53.278Z,42.85
2019-04-11T10:36:53.831Z,42.94
2019-04-11T10:37:53.328Z,42.42
2019-04-11T10:38:55.274Z,41.85
2019-04-11T10:39:53.857Z,42.53
2019-04-11T10:40:54.655Z,42.19
2019-04-11T10:41:53.957Z,42.91
2019-04-11T10:42:54.097Z,42.57
2019-04-11T10:43:53.980Z,42.77
2019-04-11T10:44:54.286Z,41.81
2019-04-11T10:45:53.259Z,41.53
2019-04-11T10:46:53.505Z,41.35
2019-04-11T10:47:56.076Z,41.56
2019-04-11T10:48:53.295Z,41.95
2019-04-11T10:49:54.367Z,41.75
2019-04-11T10:50:53.325Z,42.14
2019-04-11T10:51:54.133Z,42.06
2019-04-11T10:52:53.275Z,41.88
2019-04-11T10:53:53.537Z,41.74
2019-04-11T10:54:55.383Z,42.35
2019-04-11T10:55:53.950Z,43.52
2019-04-11T10:56:53.859Z,42.14
2019-04-11T10:57:54.270Z,41.52
2019-04-11T10:58:55.574Z,41.94
2019-04-11T10:59:54.722Z,41.09
2019-04-11T11:00:53.785Z,41.31
2019-04-11T11:01:53.258Z,41.06
2019-04-11T11:02:53.806Z,41.07
2019-04-11T11:03:53.705Z,40.93
2019-04-11T11:04:53.339Z,39.54
2019-04-11T11:05:53.487Z,39.72
2019-04-11T11:06:54.047Z,41.14
2019-04-11T11:07:53.231Z,41.33
2019-04-11T11:08:53.529Z,41.06
2019-04-11T11:09:53.222Z,41.71
2019-04-11T11:10:53.222Z,41.83
2019-04-11T11:11:53.335Z,39.94
2019-04-11T11:12:53.932Z,41.83
2019-04-11T11:13:54.414Z,40.96
2019-04-11T11:14:53.871Z,40.35
2019-04-11T11:15:53.288Z,39.49
2019-04-11T11:16:53.237Z,40.75
2019-04-11T11:20:31.065Z,40.72
2019-04-11T11:21:05.533Z,41.05
2019-04-11T11:21:53.450Z,40.86
2019-04-11T11:22:53.949Z,40.89
2019-04-11T11:23:54.553Z,40.85
2019-04-11T11:24:54.635Z,40.91
2019-04-11T11:25:53.451Z,40.27
2019-04-11T11:27:04.188Z,39.96
2019-04-11T11:27:53.227Z,40.36
2019-04-11T11:28:53.190Z,39.96
2019-04-11T11:29:54.288Z,39.96
2019-04-11T11:30:54.257Z,39.64
2019-04-11T11:31:54.803Z,39.29
2019-04-11T11:32:54.021Z,39.85
2019-04-11T11:33:54.499Z,40.03
2019-04-11T11:34:55.157Z,40.7
2019-04-11T11:35:56.419Z,40.88
2019-04-11T11:36:57.010Z,41.12
2019-04-11T11:37:53.617Z,40.3
2019-04-11T11:38:54.486Z,41.03
2019-04-11T11:39:53.255Z,41.23
2019-04-11T11:40:54.346Z,40.54
2019-04-11T11:41:54.616Z,38.97
2019-04-11T11:42:53.184Z,38.5
2019-04-11T11:43:53.186Z,39.09
2019-04-11T11:44:53.326Z,38.72
2019-04-11T11:45:57.188Z,38.61
2019-04-11T11:46:54.262Z,38.47
2019-04-11T11:47:53.328Z,39.15
2019-04-11T11:48:54.571Z,39.86
2019-04-11T11:50:06.125Z,38.53
2019-04-11T11:50:53.225Z,38.99
2019-04-11T11:51:54.075Z,39.9
2019-04-11T11:52:53.322Z,37.6
2019-04-11T11:53:53.347Z,38.32
2019-04-11T11:54:53.770Z,40
2019-04-11T11:55:53.766Z,39.7
2019-04-11T11:56:54.182Z,39.42
2019-04-11T11:57:53.239Z,37.57
2019-04-11T11:59:01.182Z,37.76
2019-04-11T11:59:53.418Z,37.74
2019-04-11T12:01:04.644Z,37.19
2019-04-11T12:01:54.463Z,37.75
2019-04-11T12:02:56.648Z,37.81
2019-04-11T12:04:04.567Z,37.96
2019-04-11T12:04:54.173Z,38.09
2019-04-11T12:05:54.187Z,38.33
2019-04-11T12:07:06.812Z,38
2019-04-11T12:07:56.178Z,38.59
2019-04-11T12:08:54.226Z,37.67
2019-04-11T12:09:53.167Z,37.15
2019-04-11T12:10:53.551Z,37.63
2019-04-11T12:11:57.058Z,38.14
2019-04-11T12:12:54.225Z,37.42
2019-04-11T12:13:53.852Z,37.51
2019-04-11T12:14:53.937Z,36.89
2019-04-11T12:15:53.553Z,36.59
2019-04-11T12:17:06.696Z,37.51
2019-04-11T12:17:54.183Z,36.85
2019-04-11T12:18:55.206Z,36.89
2019-04-11T12:20:13.235Z,37.32
2019-04-11T12:20:59.426Z,37.41
2019-04-11T12:21:53.919Z,36.81
2019-04-11T12:22:55.247Z,36.91
2019-04-11T12:24:08.458Z,37.38
2019-04-11T12:24:53.478Z,38.12
2019-04-11T12:25:54.056Z,36.15
2019-04-11T12:26:54.055Z,36.21
2019-04-11T12:27:54.291Z,36.22
2019-04-11T12:28:54.337Z,36.69
2019-04-11T12:29:53.620Z,36.89
2019-04-11T12:31:05.388Z,36.44
2019-04-11T12:31:53.221Z,36.73
2019-04-11T12:32:53.105Z,34.25
2019-04-11T12:33:54.137Z,34.39
2019-04-11T12:34:53.110Z,35.43
2019-04-11T12:35:53.113Z,34.79
2019-04-11T12:36:56.878Z,36.1
2019-04-11T12:37:56.027Z,37.34
2019-04-11T12:38:55.574Z,35.77
2019-04-11T12:39:53.388Z,36.56
2019-04-11T12:40:53.200Z,36.75
2019-04-11T12:41:53.115Z,34.53
2019-04-11T12:42:53.117Z,35.35
2019-04-11T12:43:53.124Z,34.92
2019-04-11T12:44:53.086Z,34.03
2019-04-11T12:45:53.172Z,34.15
2019-04-11T12:46:53.496Z,34.29
2019-04-11T12:47:53.410Z,33.32
2019-04-11T12:48:53.169Z,34.76
2019-04-11T12:49:53.646Z,33.56
2019-04-11T12:50:53.112Z,34.4
2019-04-11T12:51:53.216Z,35.14
2019-04-11T12:52:53.139Z,34.85
2019-04-11T12:53:53.091Z,35.26
2019-04-11T12:54:53.142Z,34.36
2019-04-11T12:55:53.095Z,34.87
2019-04-11T12:56:53.163Z,34.98
2019-04-11T12:57:53.137Z,35.17
2019-04-11T12:58:53.082Z,33.28
2019-04-11T12:59:53.126Z,34.48
2019-04-11T13:00:53.081Z,34.89
2019-04-11T13:01:53.185Z,34.08
2019-04-11T13:02:53.127Z,32.97
2019-04-11T13:03:53.180Z,34.62
2019-04-11T13:04:53.137Z,33.61
2019-04-11T13:05:53.056Z,34.78
2019-04-11T13:06:54.055Z,33.7
2019-04-11T13:07:53.175Z,34.45
2019-04-11T13:08:53.407Z,34.42